Kingsville, Canada
Current Conditions -  °F | °C
As of 7:00 PM on Sunday 23 Nov 2014 (Local Time) from CYQG Reporting Station
Light Rain Light Rain  
Wind Chill: 52°   Ceiling: 8800
Heat Index: 52°   Visibility: 10mi
Dew Point: 45°   Wind: 12mph
Humidity: 76%   Direction: 130°SE
Pressure: 29.58"   Gusts: NA
Location:  42.03°N, 82.75°W
Report Text: CYQG 240000Z 13010KT 10SM -RA OVC088 11/07 A2958 RMK AC8 SLP018
Loading
Personal Weather Stations






























Interactive Weather Map New forecast layout! Learn more

10-Day Weather Forecast

Advertisements
Track Severe Weather on mobile